Nearby METAR Reports

 

KC09 - Morris-Washburn, Illinois, USA
Distance from station: NW 9mi, 14km
Updated: Tue, 23-Jan-2018 7:15am CST
Overcast
Overcast
 Wind from NW
Wind: NW 10 mph , 17 km/h, Gust: 18 mph , 30 km/h
Temperature: 32°F , 0°C
Wind Chill: 24°F , -4°C
Dew Point: 30°F , -1°C
Humidity: 93%
Barometer: 29.70 inHg , 1005.8 hPa
Clouds: Overcast
Visibility: 10 miles , 16 km
Cloud details: Partly cloudy 1500 ft
Mostly cloudy 3400 ft
Overcast 4700 ft
2018/01/23 13:15 KC09 231315Z AUTO 32009G16KT 10SM SCT015 BKN034 OVC047 00/M01 A2970 RMK AO2 T00021015
KJOT - Joliet, Illinois, USA
Distance from station: NNE 13mi, 22km
Updated: Tue, 23-Jan-2018 7:15am CST
Overcast
Overcast
 Wind from NW
Wind: NW 8 mph , 13 km/h
Temperature: 34°F , 1°C
Wind Chill: 27°F , -3°C
Dew Point: 32°F , 0°C
Humidity: 93%
Barometer: 29.70 inHg , 1005.8 hPa
Clouds: Overcast
Visibility: 10 miles , 16 km
Cloud details: Mostly cloudy 1400 ft
Overcast 2100 ft
2018/01/23 13:15 KJOT 231315Z AUTO 31007KT 10SM BKN014 OVC021 01/00 A2970 RMK AO2 T00081001
 
KLOT - Romeoville/Chi, Illinois, USA
Distance from station: NNE 21mi, 33km
Updated: Tue, 23-Jan-2018 7:15am CST
Overcast
Overcast
 Wind from NW
Wind: NW 9 mph , 15 km/h
Temperature: 32°F , 0°C
Wind Chill: 24°F , -4°C
Dew Point: 30°F , -1°C
Humidity: 93%
Barometer: 29.69 inHg , 1005.4 hPa
Clouds: Overcast
Visibility: 10 miles , 16 km
Cloud details: Partly cloudy 700 ft
Mostly cloudy 1200 ft
Overcast 4200 ft
2018/01/23 13:15 KLOT 231315Z AUTO 32008KT 10SM SCT007 BKN012 OVC042 00/M01 A2969 RMK AO2 T10011010
KIKK - Kankakee, Illinois, USA
Distance from station: SE 30mi, 48km
Updated: Tue, 23-Jan-2018 7:15am CST
Light drizzle, Overcast
Light drizzle, Overcast
 Wind from WNW
Wind: WNW 9 mph , 15 km/h
Barometer: 29.69 inHg , 1005.4 hPa
Summary: Light Drizzle
Clouds: Overcast
Visibility: 10 miles , 16 km
Cloud details: Overcast 600 ft
2018/01/23 13:15 KIKK 231315Z AUTO 30008KT 10SM -DZ OVC006 A2969 RMK AO2
 
KARR - Chicago/Aurora, Illinois, USA
Distance from station: NNW 31mi, 50km
Updated: Tue, 23-Jan-2018 6:52am CST
Overcast
Overcast
 Wind from NW
Wind: NW 15 mph , 24 km/h
Temperature: 32°F , 0°C
Wind Chill: 22°F , -6°C
Dew Point: 28°F , -2°C
Humidity: 87%
Barometer: 29.68 inHg , 1005.1 hPa
Clouds: Overcast
Visibility: 10 miles , 16 km
Cloud details: Mostly cloudy 1500 ft
Overcast 5000 ft
2018/01/23 12:52 KARR 231252Z 32013KT 10SM BKN015 OVC050 00/M02 A2968 RMK AO2 SLP055 T00001017
KPNT - Pontiac, Illinois, USA
Distance from station: SSW 34mi, 54km
Updated: Tue, 23-Jan-2018 7:15am CST
Overcast
Overcast
 Wind from NW
Wind: NW 14 mph , 22 km/h, Gust: 17 mph , 28 km/h
Temperature: 34°F , 1°C
Wind Chill: 25°F , -4°C
Dew Point: 34°F , 1°C
Humidity: 100%
Barometer: 29.74 inHg , 1007.1 hPa
Clouds: Overcast
Visibility: 10 miles , 16 km
Cloud details: Overcast 2100 ft
2018/01/23 13:15 KPNT 231315Z AUTO 31012G15KT 10SM OVC021 01/01 A2974 RMK AO2 T00100006
 
KDPA - Chicago/Dupage, Illinois, USA
Distance from station: N 40mi, 64km
Updated: Tue, 23-Jan-2018 7:09am CST
Overcast
Overcast
 Wind from NNW
Wind: NNW 15 mph , 24 km/h, Gust: 25 mph , 41 km/h
Temperature: 30°F , -1°C
Wind Chill: 19°F , -7°C
Dew Point: 27°F , -3°C
Humidity: 86%
Barometer: 29.67 inHg , 1004.7 hPa
Clouds: Overcast
Visibility: 10 miles , 16 km
Cloud details: Mostly cloudy 1600 ft
Overcast 4100 ft
2018/01/23 13:09 KDPA 231309Z 33013G22KT 10SM BKN016 OVC041 M01/M03 A2967 RMK AO2 T10061028
KIGQ - Chicago/Lansing, Illinois, USA
Distance from station: ENE 42mi, 67km
Updated: Tue, 23-Jan-2018 7:15am CST
Light snow, Overcast
Light snow, Overcast
 Wind from WNW
Wind: WNW 9 mph , 15 km/h
Temperature: 32°F , 0°C
Wind Chill: 24°F , -4°C
Dew Point: 32°F , 0°C
Humidity: 100%
Barometer: 29.67 inHg , 1004.7 hPa
Summary: Light Snow
Clouds: Overcast
Visibility: 2 miles , 3 km
Cloud details: Overcast 700 ft
2018/01/23 13:15 KIGQ 231315Z AUTO 29008KT 2SM -SN OVC007 00/00 A2967 RMK AO2 T00000000
 
KMDW - Chicago, Illinois, USA
Distance from station: NE 42mi, 67km
Updated: Tue, 23-Jan-2018 6:53am CST
Light snow, Mist, Overcast
Light snow, Mist, Overcast
 Wind from NW
Wind: NW 16 mph , 26 km/h, Gust: 24 mph , 39 km/h
Temperature: 32°F , 0°C
Wind Chill: 21°F , -6°C
Dew Point: 30°F , -1°C
Humidity: 93%
Barometer: 29.65 inHg , 1004.1 hPa
Summary: Light snow, Mist
Clouds: Overcast
Visibility: 1 1/4 miles , 2 km
Cloud details: Partly cloudy 900 ft
Overcast 1800 ft
2018/01/23 12:53 KMDW 231253Z 32014G21KT 1 1/4SM -SN BR SCT009 OVC018 00/M01 A2965 RMK AO2 SLP047 P0001 T00001011
KVYS - Peru, Illinois, USA
Distance from station: W 44mi, 71km
Updated: Tue, 23-Jan-2018 7:15am CST
Overcast
Overcast
 Wind from WNW
Wind: WNW 12 mph , 19 km/h
Temperature: 32°F , 0°C
Wind Chill: 23°F , -5°C
Dew Point: 30°F , -1°C
Humidity: 93%
Barometer: 29.75 inHg , 1007.5 hPa
Clouds: Overcast
Visibility: 10 miles , 16 km
Cloud details: Overcast 1200 ft
2018/01/23 13:15 KVYS 231315Z AUTO 30010KT 10SM OVC012 00/M01 A2975 RMK AO2 T00001010
 
KDKB - De Kalb, Illinois, USA
Distance from station: NNW 46mi, 74km
Updated: Tue, 23-Jan-2018 7:15am CST
Overcast
Overcast
 Wind from NW
Wind: NW 10 mph , 17 km/h
Temperature: 32°F , 0°C
Wind Chill: 24°F , -4°C
Dew Point: 28°F , -2°C
Humidity: 87%
Barometer: 29.70 inHg , 1005.8 hPa
Clouds: Overcast
Visibility: 10 miles , 16 km
Cloud details: Overcast 1300 ft
2018/01/23 13:15 KDKB 231315Z AUTO 32009KT 10SM OVC013 00/M02 A2970 RMK AO2 T10051021
KORD - Chicago O'hare, Illinois, USA
Distance from station: NNE 48mi, 78km
Updated: Tue, 23-Jan-2018 7:21am CST
Light snow, Mist, Overcast
Light snow, Mist, Overcast
 Wind from NW
Wind: NW 16 mph , 26 km/h
Temperature: 30°F , -1°C
Wind Chill: 19°F , -7°C
Dew Point: 27°F , -3°C
Humidity: 86%
Barometer: 29.67 inHg , 1004.7 hPa
Summary: Light snow, Mist
Clouds: Overcast
Visibility: 3 miles , 5 km
Cloud details: Few Clouds 1200 ft
Overcast 2900 ft
2018/01/23 13:21 KORD 231321Z 32014KT 3SM -SN BR FEW012 OVC029 M01/M03 A2967 RMK AO2 P0000 T10061028
 
KGYY - Gary Regional, Indiana, USA
Distance from station: ENE 49mi, 80km
Updated: Tue, 23-Jan-2018 7:10am CST
Light snow, Overcast
Light snow, Overcast
 Wind from WNW
Wind: WNW 12 mph , 19 km/h
Temperature: 34°F , 1°C
Wind Chill: 25°F , -4°C
Dew Point: 32°F , 0°C
Humidity: 93%
Barometer: 29.67 inHg , 1004.7 hPa
Summary: Light Snow
Clouds: Overcast
Visibility: 1 1/2 miles , 2 km
Cloud details: Overcast 600 ft
2018/01/23 13:10 KGYY 231310Z 30010KT 1 1/2SM -SN OVC006 01/00 A2967